sensor_id;sensor_type;location;lat;lon;timestamp;temperature;humidity
57709;SHT35;42558;52.388;13.390;2023-09-30T00:01:30;17.31;75.89
57709;SHT35;42558;52.388;13.390;2023-09-30T00:03:58;17.30;75.84
57709;SHT35;42558;52.388;13.390;2023-09-30T00:06:30;17.25;75.80
57709;SHT35;42558;52.388;13.390;2023-09-30T00:08:58;17.22;75.33
57709;SHT35;42558;52.388;13.390;2023-09-30T00:11:27;17.20;75.23
57709;SHT35;42558;52.388;13.390;2023-09-30T00:13:55;17.11;74.54
57709;SHT35;42558;52.388;13.390;2023-09-30T00:16:23;17.00;74.32
57709;SHT35;42558;52.388;13.390;2023-09-30T00:18:51;16.92;74.35
57709;SHT35;42558;52.388;13.390;2023-09-30T00:21:23;16.84;74.31
57709;SHT35;42558;52.388;13.390;2023-09-30T00:23:53;16.71;74.38
57709;SHT35;42558;52.388;13.390;2023-09-30T00:26:23;16.59;74.44
57709;SHT35;42558;52.388;13.390;2023-09-30T00:28:53;16.47;74.38
57709;SHT35;42558;52.388;13.390;2023-09-30T00:31:23;16.41;74.15
57709;SHT35;42558;52.388;13.390;2023-09-30T00:33:53;16.31;73.66
57709;SHT35;42558;52.388;13.390;2023-09-30T00:36:24;16.22;73.77
57709;SHT35;42558;52.388;13.390;2023-09-30T00:38:54;16.19;74.06
57709;SHT35;42558;52.388;13.390;2023-09-30T00:41:24;16.13;74.14
57709;SHT35;42558;52.388;13.390;2023-09-30T00:43:55;16.03;74.16
57709;SHT35;42558;52.388;13.390;2023-09-30T00:46:29;15.93;74.21
57709;SHT35;42558;52.388;13.390;2023-09-30T00:49:02;15.86;74.18
57709;SHT35;42558;52.388;13.390;2023-09-30T00:51:32;15.81;74.28
57709;SHT35;42558;52.388;13.390;2023-09-30T00:54:03;15.78;74.31
57709;SHT35;42558;52.388;13.390;2023-09-30T00:56:35;15.77;74.48
57709;SHT35;42558;52.388;13.390;2023-09-30T00:59:14;15.72;74.64
57709;SHT35;42558;52.388;13.390;2023-09-30T01:01:45;15.67;74.77
57709;SHT35;42558;52.388;13.390;2023-09-30T01:04:16;15.59;74.81
57709;SHT35;42558;52.388;13.390;2023-09-30T01:06:47;15.56;74.92
57709;SHT35;42558;52.388;13.390;2023-09-30T01:09:17;15.54;74.87
57709;SHT35;42558;52.388;13.390;2023-09-30T01:11:48;15.48;74.86
57709;SHT35;42558;52.388;13.390;2023-09-30T01:14:29;15.43;74.79
57709;SHT35;42558;52.388;13.390;2023-09-30T01:17:10;15.33;74.97
57709;SHT35;42558;52.388;13.390;2023-09-30T01:19:41;15.25;75.23
57709;SHT35;42558;52.388;13.390;2023-09-30T01:22:14;15.21;75.34
57709;SHT35;42558;52.388;13.390;2023-09-30T01:24:44;15.16;75.42
57709;SHT35;42558;52.388;13.390;2023-09-30T01:27:16;15.12;75.56
57709;SHT35;42558;52.388;13.390;2023-09-30T01:29:48;15.07;75.66
57709;SHT35;42558;52.388;13.390;2023-09-30T01:32:18;15.02;75.84
57709;SHT35;42558;52.388;13.390;2023-09-30T01:34:48;14.98;76.04
57709;SHT35;42558;52.388;13.390;2023-09-30T01:37:18;14.94;76.15
57709;SHT35;42558;52.388;13.390;2023-09-30T01:39:48;14.90;76.32
57709;SHT35;42558;52.388;13.390;2023-09-30T01:42:19;14.84;76.46
57709;SHT35;42558;52.388;13.390;2023-09-30T01:44:49;14.82;76.63
57709;SHT35;42558;52.388;13.390;2023-09-30T01:47:19;14.79;76.72
57709;SHT35;42558;52.388;13.390;2023-09-30T01:49:49;14.70;76.98
57709;SHT35;42558;52.388;13.390;2023-09-30T01:52:19;14.64;77.28
57709;SHT35;42558;52.388;13.390;2023-09-30T01:54:49;14.62;77.58
57709;SHT35;42558;52.388;13.390;2023-09-30T01:57:19;14.58;77.67
57709;SHT35;42558;52.388;13.390;2023-09-30T01:59:49;14.58;77.73
57709;SHT35;42558;52.388;13.390;2023-09-30T02:02:19;14.53;77.91
57709;SHT35;42558;52.388;13.390;2023-09-30T02:04:49;14.48;78.14
57709;SHT35;42558;52.388;13.390;2023-09-30T02:07:19;14.41;78.42
57709;SHT35;42558;52.388;13.390;2023-09-30T02:09:49;14.39;78.75
57709;SHT35;42558;52.388;13.390;2023-09-30T02:12:19;14.34;78.99
57709;SHT35;42558;52.388;13.390;2023-09-30T02:14:49;14.31;79.28
57709;SHT35;42558;52.388;13.390;2023-09-30T02:17:20;14.28;79.34
57709;SHT35;42558;52.388;13.390;2023-09-30T02:19:50;14.22;79.65
57709;SHT35;42558;52.388;13.390;2023-09-30T02:22:20;14.15;79.92
57709;SHT35;42558;52.388;13.390;2023-09-30T02:24:50;14.06;80.22
57709;SHT35;42558;52.388;13.390;2023-09-30T02:27:20;13.99;80.53
57709;SHT35;42558;52.388;13.390;2023-09-30T02:29:50;13.95;80.82
57709;SHT35;42558;52.388;13.390;2023-09-30T02:32:18;13.91;80.82
57709;SHT35;42558;52.388;13.390;2023-09-30T02:34:47;13.86;81.03
57709;SHT35;42558;52.388;13.390;2023-09-30T02:37:15;13.86;81.04
57709;SHT35;42558;52.388;13.390;2023-09-30T02:39:46;13.83;81.07
57709;SHT35;42558;52.388;13.390;2023-09-30T02:42:15;13.78;81.16
57709;SHT35;42558;52.388;13.390;2023-09-30T02:44:43;13.72;81.57
57709;SHT35;42558;52.388;13.390;2023-09-30T02:47:12;13.71;81.75
57709;SHT35;42558;52.388;13.390;2023-09-30T02:49:40;13.67;82.03
57709;SHT35;42558;52.388;13.390;2023-09-30T02:52:09;13.68;82.23
57709;SHT35;42558;52.388;13.390;2023-09-30T02:54:37;13.64;82.32
57709;SHT35;42558;52.388;13.390;2023-09-30T02:57:05;13.61;82.65
57709;SHT35;42558;52.388;13.390;2023-09-30T02:59:37;13.60;82.73
57709;SHT35;42558;52.388;13.390;2023-09-30T03:02:07;13.61;83.04
57709;SHT35;42558;52.388;13.390;2023-09-30T03:04:37;13.65;82.90
57709;SHT35;42558;52.388;13.390;2023-09-30T03:07:07;13.62;83.05
57709;SHT35;42558;52.388;13.390;2023-09-30T03:09:38;13.58;83.37
57709;SHT35;42558;52.388;13.390;2023-09-30T03:12:07;13.55;83.48
57709;SHT35;42558;52.388;13.390;2023-09-30T03:14:39;13.49;83.71
57709;SHT35;42558;52.388;13.390;2023-09-30T03:17:09;13.47;84.07
57709;SHT35;42558;52.388;13.390;2023-09-30T03:19:40;13.47;83.96
57709;SHT35;42558;52.388;13.390;2023-09-30T03:22:11;13.42;84.11
57709;SHT35;42558;52.388;13.390;2023-09-30T03:24:41;13.37;84.33
57709;SHT35;42558;52.388;13.390;2023-09-30T03:27:12;13.41;84.20
57709;SHT35;42558;52.388;13.390;2023-09-30T03:29:42;13.39;84.05
57709;SHT35;42558;52.388;13.390;2023-09-30T03:32:12;13.32;84.24
57709;SHT35;42558;52.388;13.390;2023-09-30T03:34:41;13.29;84.45
57709;SHT35;42558;52.388;13.390;2023-09-30T03:37:14;13.30;84.37
57709;SHT35;42558;52.388;13.390;2023-09-30T03:39:44;13.35;83.90
57709;SHT35;42558;52.388;13.390;2023-09-30T03:42:18;13.30;83.54
57709;SHT35;42558;52.388;13.390;2023-09-30T03:44:48;13.21;83.50
57709;SHT35;42558;52.388;13.390;2023-09-30T03:47:19;13.14;84.01
57709;SHT35;42558;52.388;13.390;2023-09-30T03:49:49;13.19;84.10
57709;SHT35;42558;52.388;13.390;2023-09-30T03:52:19;13.21;83.67
57709;SHT35;42558;52.388;13.390;2023-09-30T03:54:52;13.14;83.64
57709;SHT35;42558;52.388;13.390;2023-09-30T03:57:23;13.13;83.85
57709;SHT35;42558;52.388;13.390;2023-09-30T03:59:53;13.13;84.05
57709;SHT35;42558;52.388;13.390;2023-09-30T04:02:23;13.13;83.85
57709;SHT35;42558;52.388;13.390;2023-09-30T04:04:53;13.08;83.94
57709;SHT35;42558;52.388;13.390;2023-09-30T04:07:25;13.01;84.34
57709;SHT35;42558;52.388;13.390;2023-09-30T04:09:57;13.01;84.52
57709;SHT35;42558;52.388;13.390;2023-09-30T04:12:27;13.01;84.45
57709;SHT35;42558;52.388;13.390;2023-09-30T04:14:58;12.94;84.31
57709;SHT35;42558;52.388;13.390;2023-09-30T04:17:28;12.90;84.70
57709;SHT35;42558;52.388;13.390;2023-09-30T04:19:58;12.90;84.72
57709;SHT35;42558;52.388;13.390;2023-09-30T04:22:28;12.84;84.48
57709;SHT35;42558;52.388;13.390;2023-09-30T04:25:00;12.80;84.84
57709;SHT35;42558;52.388;13.390;2023-09-30T04:27:30;12.82;85.01
57709;SHT35;42558;52.388;13.390;2023-09-30T04:30:00;12.78;84.77
57709;SHT35;42558;52.388;13.390;2023-09-30T04:32:29;12.80;84.87
57709;SHT35;42558;52.388;13.390;2023-09-30T04:34:57;12.78;84.40
57709;SHT35;42558;52.388;13.390;2023-09-30T04:37:26;12.67;84.38
57709;SHT35;42558;52.388;13.390;2023-09-30T04:39:54;12.54;84.81
57709;SHT35;42558;52.388;13.390;2023-09-30T04:42:22;12.52;85.56
57709;SHT35;42558;52.388;13.390;2023-09-30T04:44:54;12.53;85.38
57709;SHT35;42558;52.388;13.390;2023-09-30T04:47:22;12.48;85.32
57709;SHT35;42558;52.388;13.390;2023-09-30T04:49:51;12.47;85.51
57709;SHT35;42558;52.388;13.390;2023-09-30T04:52:19;12.48;85.40
57709;SHT35;42558;52.388;13.390;2023-09-30T04:54:47;12.52;85.08
57709;SHT35;42558;52.388;13.390;2023-09-30T04:57:16;12.52;84.62
57709;SHT35;42558;52.388;13.390;2023-09-30T04:59:44;12.56;84.25
57709;SHT35;42558;52.388;13.390;2023-09-30T05:02:13;12.55;83.90
57709;SHT35;42558;52.388;13.390;2023-09-30T05:04:44;12.55;83.58
57709;SHT35;42558;52.388;13.390;2023-09-30T05:07:14;12.58;83.65
57709;SHT35;42558;52.388;13.390;2023-09-30T05:09:44;12.59;83.22
57709;SHT35;42558;52.388;13.390;2023-09-30T05:12:14;12.57;83.12
57709;SHT35;42558;52.388;13.390;2023-09-30T05:14:45;12.60;82.92
57709;SHT35;42558;52.388;13.390;2023-09-30T05:17:15;12.60;82.46
57709;SHT35;42558;52.388;13.390;2023-09-30T05:19:45;12.59;82.33
57709;SHT35;42558;52.388;13.390;2023-09-30T05:22:15;12.53;82.10
57709;SHT35;42558;52.388;13.390;2023-09-30T05:24:48;12.51;82.45
57709;SHT35;42558;52.388;13.390;2023-09-30T05:27:20;12.53;82.53
57709;SHT35;42558;52.388;13.390;2023-09-30T05:29:50;12.50;82.17
57709;SHT35;42558;52.388;13.390;2023-09-30T05:32:19;12.44;82.49
57709;SHT35;42558;52.388;13.390;2023-09-30T05:34:51;12.42;82.67
57709;SHT35;42558;52.388;13.390;2023-09-30T05:37:23;12.49;82.84
57709;SHT35;42558;52.388;13.390;2023-09-30T05:39:55;12.53;82.51
57709;SHT35;42558;52.388;13.390;2023-09-30T05:42:25;12.56;82.66
57709;SHT35;42558;52.388;13.390;2023-09-30T05:44:55;12.63;82.53
57709;SHT35;42558;52.388;13.390;2023-09-30T05:47:25;12.64;82.34
57709;SHT35;42558;52.388;13.390;2023-09-30T05:49:55;12.68;82.30
57709;SHT35;42558;52.388;13.390;2023-09-30T05:52:25;12.72;82.42
57709;SHT35;42558;52.388;13.390;2023-09-30T05:54:55;12.73;82.56
57709;SHT35;42558;52.388;13.390;2023-09-30T05:57:25;12.70;82.98
57709;SHT35;42558;52.388;13.390;2023-09-30T05:59:55;12.69;83.57
57709;SHT35;42558;52.388;13.390;2023-09-30T06:02:25;12.75;83.89
57709;SHT35;42558;52.388;13.390;2023-09-30T06:04:55;12.83;84.08
57709;SHT35;42558;52.388;13.390;2023-09-30T06:07:24;12.85;84.28
57709;SHT35;42558;52.388;13.390;2023-09-30T06:09:52;12.86;84.91
57709;SHT35;42558;52.388;13.390;2023-09-30T06:12:21;12.94;85.33
57709;SHT35;42558;52.388;13.390;2023-09-30T06:14:49;13.05;85.52
57709;SHT35;42558;52.388;13.390;2023-09-30T06:17:20;13.15;85.63
57709;SHT35;42558;52.388;13.390;2023-09-30T06:19:49;13.25;85.70
57709;SHT35;42558;52.388;13.390;2023-09-30T06:22:17;13.35;85.76
57709;SHT35;42558;52.388;13.390;2023-09-30T06:24:46;13.39;85.61
57709;SHT35;42558;52.388;13.390;2023-09-30T06:27:17;13.38;85.45
57709;SHT35;42558;52.388;13.390;2023-09-30T06:29:48;13.38;85.47
57709;SHT35;42558;52.388;13.390;2023-09-30T06:32:18;13.41;85.44
57709;SHT35;42558;52.388;13.390;2023-09-30T06:34:48;13.44;85.49
57709;SHT35;42558;52.388;13.390;2023-09-30T06:37:18;13.47;85.34
57709;SHT35;42558;52.388;13.390;2023-09-30T06:39:49;13.50;85.30
57709;SHT35;42558;52.388;13.390;2023-09-30T06:42:19;13.57;85.24
57709;SHT35;42558;52.388;13.390;2023-09-30T06:44:49;13.57;84.94
57709;SHT35;42558;52.388;13.390;2023-09-30T06:47:19;13.60;84.94
57709;SHT35;42558;52.388;13.390;2023-09-30T06:49:50;13.64;84.79
57709;SHT35;42558;52.388;13.390;2023-09-30T06:52:20;13.70;84.68
57709;SHT35;42558;52.388;13.390;2023-09-30T06:54:50;13.76;84.50
57709;SHT35;42558;52.388;13.390;2023-09-30T06:57:21;13.80;84.25
57709;SHT35;42558;52.388;13.390;2023-09-30T06:59:51;13.83;84.13
57709;SHT35;42558;52.388;13.390;2023-09-30T07:02:21;13.97;84.08
57709;SHT35;42558;52.388;13.390;2023-09-30T07:04:51;14.04;83.48
57709;SHT35;42558;52.388;13.390;2023-09-30T07:07:22;14.14;83.55
57709;SHT35;42558;52.388;13.390;2023-09-30T07:09:53;14.40;83.46
57709;SHT35;42558;52.388;13.390;2023-09-30T07:12:23;14.64;82.91
57709;SHT35;42558;52.388;13.390;2023-09-30T07:14:53;14.55;82.32
57709;SHT35;42558;52.388;13.390;2023-09-30T07:17:23;14.52;82.79
57709;SHT35;42558;52.388;13.390;2023-09-30T07:19:53;14.59;82.14
57709;SHT35;42558;52.388;13.390;2023-09-30T07:22:23;14.66;82.10
57709;SHT35;42558;52.388;13.390;2023-09-30T07:25:12;14.83;81.59
57709;SHT35;42558;52.388;13.390;2023-09-30T07:27:44;14.87;80.97
57709;SHT35;42558;52.388;13.390;2023-09-30T07:30:15;14.88;80.89
57709;SHT35;42558;52.388;13.390;2023-09-30T07:32:45;14.91;80.68
57709;SHT35;42558;52.388;13.390;2023-09-30T07:35:16;14.86;80.10
57709;SHT35;42558;52.388;13.390;2023-09-30T07:37:47;14.80;80.19
57709;SHT35;42558;52.388;13.390;2023-09-30T07:40:17;14.75;80.29
57709;SHT35;42558;52.388;13.390;2023-09-30T07:42:47;14.87;80.22
57709;SHT35;42558;52.388;13.390;2023-09-30T07:45:17;14.95;79.73
57709;SHT35;42558;52.388;13.390;2023-09-30T07:47:47;15.00;79.44
57709;SHT35;42558;52.388;13.390;2023-09-30T07:50:15;15.29;79.68
57709;SHT35;42558;52.388;13.390;2023-09-30T07:52:44;15.62;78.28
57709;SHT35;42558;52.388;13.390;2023-09-30T07:55:12;15.60;77.24
57709;SHT35;42558;52.388;13.390;2023-09-30T07:57:41;15.37;77.55
57709;SHT35;42558;52.388;13.390;2023-09-30T08:00:12;15.13;77.87
57709;SHT35;42558;52.388;13.390;2023-09-30T08:02:46;15.01;78.64
57709;SHT35;42558;52.388;13.390;2023-09-30T08:05:17;14.97;78.81
57709;SHT35;42558;52.388;13.390;2023-09-30T08:07:47;14.94;78.85
57709;SHT35;42558;52.388;13.390;2023-09-30T08:10:17;15.00;78.78
57709;SHT35;42558;52.388;13.390;2023-09-30T08:12:47;14.99;78.37
57709;SHT35;42558;52.388;13.390;2023-09-30T08:15:19;14.94;78.92
57709;SHT35;42558;52.388;13.390;2023-09-30T08:17:49;15.00;78.71
57709;SHT35;42558;52.388;13.390;2023-09-30T08:20:19;15.07;78.52
57709;SHT35;42558;52.388;13.390;2023-09-30T08:22:49;15.35;78.03
57709;SHT35;42558;52.388;13.390;2023-09-30T08:25:19;15.61;77.21
57709;SHT35;42558;52.388;13.390;2023-09-30T08:27:49;15.76;76.35
57709;SHT35;42558;52.388;13.390;2023-09-30T08:30:19;15.99;76.00
57709;SHT35;42558;52.388;13.390;2023-09-30T08:32:49;16.30;75.18
57709;SHT35;42558;52.388;13.390;2023-09-30T08:35:19;16.42;74.83
57709;SHT35;42558;52.388;13.390;2023-09-30T08:37:49;16.45;74.14
57709;SHT35;42558;52.388;13.390;2023-09-30T08:40:20;16.37;74.08
57709;SHT35;42558;52.388;13.390;2023-09-30T08:42:52;16.37;74.16
57709;SHT35;42558;52.388;13.390;2023-09-30T08:45:23;16.32;74.09
57709;SHT35;42558;52.388;13.390;2023-09-30T08:47:54;16.26;74.00
57709;SHT35;42558;52.388;13.390;2023-09-30T08:50:24;16.47;73.96
57709;SHT35;42558;52.388;13.390;2023-09-30T08:52:54;16.61;73.12
57709;SHT35;42558;52.388;13.390;2023-09-30T08:55:25;16.46;72.76
57709;SHT35;42558;52.388;13.390;2023-09-30T08:57:56;16.53;73.67
57709;SHT35;42558;52.388;13.390;2023-09-30T09:00:28;16.77;73.38
57709;SHT35;42558;52.388;13.390;2023-09-30T09:02:56;16.61;72.64
57709;SHT35;42558;52.388;13.390;2023-09-30T09:05:25;16.68;72.88
57709;SHT35;42558;52.388;13.390;2023-09-30T09:07:53;16.95;72.08
57709;SHT35;42558;52.388;13.390;2023-09-30T09:10:22;17.25;71.55
57709;SHT35;42558;52.388;13.390;2023-09-30T09:12:57;17.34;71.10
57709;SHT35;42558;52.388;13.390;2023-09-30T09:15:28;17.54;69.74
57709;SHT35;42558;52.388;13.390;2023-09-30T09:17:59;17.75;69.72
57709;SHT35;42558;52.388;13.390;2023-09-30T09:20:29;18.13;69.30
57709;SHT35;42558;52.388;13.390;2023-09-30T09:22:59;18.23;68.03
57709;SHT35;42558;52.388;13.390;2023-09-30T09:25:29;18.41;67.78
57709;SHT35;42558;52.388;13.390;2023-09-30T09:28:08;18.57;67.23
57709;SHT35;42558;52.388;13.390;2023-09-30T09:30:38;18.54;66.50
57709;SHT35;42558;52.388;13.390;2023-09-30T09:33:10;18.64;65.96
57709;SHT35;42558;52.388;13.390;2023-09-30T09:35:43;18.70;66.13
57709;SHT35;42558;52.388;13.390;2023-09-30T09:38:18;18.78;65.46
57709;SHT35;42558;52.388;13.390;2023-09-30T09:40:47;18.63;65.80
57709;SHT35;42558;52.388;13.390;2023-09-30T09:43:17;18.91;65.55
57709;SHT35;42558;52.388;13.390;2023-09-30T09:45:47;19.11;64.32
57709;SHT35;42558;52.388;13.390;2023-09-30T09:48:18;19.16;63.96
57709;SHT35;42558;52.388;13.390;2023-09-30T09:50:49;19.19;63.89
57709;SHT35;42558;52.388;13.390;2023-09-30T09:53:21;18.95;63.23
57709;SHT35;42558;52.388;13.390;2023-09-30T09:55:52;18.64;64.85
57709;SHT35;42558;52.388;13.390;2023-09-30T09:58:23;18.89;64.62
57709;SHT35;42558;52.388;13.390;2023-09-30T10:00:55;19.19;62.96
57709;SHT35;42558;52.388;13.390;2023-09-30T10:03:28;19.26;62.67
57709;SHT35;42558;52.388;13.390;2023-09-30T10:05:58;19.33;62.26
57709;SHT35;42558;52.388;13.390;2023-09-30T10:08:35;19.19;62.24
57709;SHT35;42558;52.388;13.390;2023-09-30T10:11:17;18.85;62.56
57709;SHT35;42558;52.388;13.390;2023-09-30T10:13:50;18.68;64.16
57709;SHT35;42558;52.388;13.390;2023-09-30T10:19:10;18.40;64.69
57709;SHT35;42558;52.388;13.390;2023-09-30T10:24:49;18.53;63.14
57709;SHT35;42558;52.388;13.390;2023-09-30T10:40:54;18.34;62.03
57709;SHT35;42558;52.388;13.390;2023-09-30T10:43:30;18.18;62.02
57709;SHT35;42558;52.388;13.390;2023-09-30T10:48:56;18.32;62.12
57709;SHT35;42558;52.388;13.390;2023-09-30T10:51:27;18.59;61.28
57709;SHT35;42558;52.388;13.390;2023-09-30T10:53:57;18.50;61.34
57709;SHT35;42558;52.388;13.390;2023-09-30T10:56:33;18.42;61.34
57709;SHT35;42558;52.388;13.390;2023-09-30T10:59:01;18.18;61.49
57709;SHT35;42558;52.388;13.390;2023-09-30T11:01:33;18.09;61.18
57709;SHT35;42558;52.388;13.390;2023-09-30T11:04:04;18.14;61.67
57709;SHT35;42558;52.388;13.390;2023-09-30T11:06:41;18.21;60.83
57709;SHT35;42558;52.388;13.390;2023-09-30T11:09:16;18.48;59.69
57709;SHT35;42558;52.388;13.390;2023-09-30T11:11:49;18.83;57.17
57709;SHT35;42558;52.388;13.390;2023-09-30T11:14:24;19.01;59.28
57709;SHT35;42558;52.388;13.390;2023-09-30T11:17:02;19.29;58.61
57709;SHT35;42558;52.388;13.390;2023-09-30T11:19:36;19.33;58.35
57709;SHT35;42558;52.388;13.390;2023-09-30T11:22:16;19.59;59.05
57709;SHT35;42558;52.388;13.390;2023-09-30T11:24:46;19.75;58.72
57709;SHT35;42558;52.388;13.390;2023-09-30T11:27:23;19.83;58.11
57709;SHT35;42558;52.388;13.390;2023-09-30T11:29:56;19.68;58.73
57709;SHT35;42558;52.388;13.390;2023-09-30T11:32:28;19.85;58.50
57709;SHT35;42558;52.388;13.390;2023-09-30T11:34:59;19.84;58.77
57709;SHT35;42558;52.388;13.390;2023-09-30T11:37:32;19.50;57.63
57709;SHT35;42558;52.388;13.390;2023-09-30T11:40:10;19.20;58.86
57709;SHT35;42558;52.388;13.390;2023-09-30T11:42:42;19.45;58.60
57709;SHT35;42558;52.388;13.390;2023-09-30T11:45:42;19.58;57.50
57709;SHT35;42558;52.388;13.390;2023-09-30T11:48:16;19.67;57.73
57709;SHT35;42558;52.388;13.390;2023-09-30T11:50:49;19.85;57.74
57709;SHT35;42558;52.388;13.390;2023-09-30T11:53:19;19.84;57.97
57709;SHT35;42558;52.388;13.390;2023-09-30T11:55:50;19.75;58.29
57709;SHT35;42558;52.388;13.390;2023-09-30T11:58:32;19.65;58.70
57709;SHT35;42558;52.388;13.390;2023-09-30T12:01:02;19.70;58.80
57709;SHT35;42558;52.388;13.390;2023-09-30T12:03:32;19.67;58.17
57709;SHT35;42558;52.388;13.390;2023-09-30T12:06:09;19.53;58.70
57709;SHT35;42558;52.388;13.390;2023-09-30T12:08:42;19.58;58.19
57709;SHT35;42558;52.388;13.390;2023-09-30T12:11:12;19.58;57.53
57709;SHT35;42558;52.388;13.390;2023-09-30T12:13:44;19.55;57.62
57709;SHT35;42558;52.388;13.390;2023-09-30T12:16:14;19.58;57.40
57709;SHT35;42558;52.388;13.390;2023-09-30T12:18:45;19.56;58.25
57709;SHT35;42558;52.388;13.390;2023-09-30T12:21:15;19.34;58.74
57709;SHT35;42558;52.388;13.390;2023-09-30T12:23:48;19.08;58.41
57709;SHT35;42558;52.388;13.390;2023-09-30T12:26:18;18.92;58.89
57709;SHT35;42558;52.388;13.390;2023-09-30T12:28:47;18.93;58.81
57709;SHT35;42558;52.388;13.390;2023-09-30T12:31:15;18.97;58.85
57709;SHT35;42558;52.388;13.390;2023-09-30T12:33:45;19.02;58.12
57709;SHT35;42558;52.388;13.390;2023-09-30T12:36:19;19.17;57.87
57709;SHT35;42558;52.388;13.390;2023-09-30T12:38:50;19.32;57.80
57709;SHT35;42558;52.388;13.390;2023-09-30T12:41:20;19.37;57.95
57709;SHT35;42558;52.388;13.390;2023-09-30T12:43:50;19.45;58.54
57709;SHT35;42558;52.388;13.390;2023-09-30T12:46:19;19.52;57.76
57709;SHT35;42558;52.388;13.390;2023-09-30T12:48:50;19.58;57.42
57709;SHT35;42558;52.388;13.390;2023-09-30T12:51:19;19.63;57.78
57709;SHT35;42558;52.388;13.390;2023-09-30T12:53:49;19.70;57.31
57709;SHT35;42558;52.388;13.390;2023-09-30T12:56:20;19.74;57.25
57709;SHT35;42558;52.388;13.390;2023-09-30T12:58:49;19.83;57.18
57709;SHT35;42558;52.388;13.390;2023-09-30T13:01:19;19.86;57.06
57709;SHT35;42558;52.388;13.390;2023-09-30T13:03:49;19.72;57.26
57709;SHT35;42558;52.388;13.390;2023-09-30T13:06:19;19.55;56.67
57709;SHT35;42558;52.388;13.390;2023-09-30T13:08:49;19.35;56.88
57709;SHT35;42558;52.388;13.390;2023-09-30T13:11:19;19.17;57.51
57709;SHT35;42558;52.388;13.390;2023-09-30T13:13:49;18.99;58.15
57709;SHT35;42558;52.388;13.390;2023-09-30T13:16:19;19.07;58.19
57709;SHT35;42558;52.388;13.390;2023-09-30T13:18:50;19.16;57.97
57709;SHT35;42558;52.388;13.390;2023-09-30T13:21:20;19.22;57.77
57709;SHT35;42558;52.388;13.390;2023-09-30T13:23:50;19.21;56.65
57709;SHT35;42558;52.388;13.390;2023-09-30T13:26:21;19.34;57.26
57709;SHT35;42558;52.388;13.390;2023-09-30T13:28:51;19.44;56.78
57709;SHT35;42558;52.388;13.390;2023-09-30T13:31:20;19.49;56.50
57709;SHT35;42558;52.388;13.390;2023-09-30T13:33:50;19.58;56.46
57709;SHT35;42558;52.388;13.390;2023-09-30T13:36:20;19.68;55.70
57709;SHT35;42558;52.388;13.390;2023-09-30T13:38:50;19.76;55.36
57709;SHT35;42558;52.388;13.390;2023-09-30T13:41:18;19.85;55.18
57709;SHT35;42558;52.388;13.390;2023-09-30T13:43:47;19.85;55.51
57709;SHT35;42558;52.388;13.390;2023-09-30T13:46:15;19.73;55.35
57709;SHT35;42558;52.388;13.390;2023-09-30T13:48:43;19.48;55.17
57709;SHT35;42558;52.388;13.390;2023-09-30T13:51:12;19.49;55.73
57709;SHT35;42558;52.388;13.390;2023-09-30T13:53:40;19.46;55.24
57709;SHT35;42558;52.388;13.390;2023-09-30T13:56:12;19.37;55.28
57709;SHT35;42558;52.388;13.390;2023-09-30T13:58:40;19.28;55.66
57709;SHT35;42558;52.388;13.390;2023-09-30T14:01:08;19.12;55.58
57709;SHT35;42558;52.388;13.390;2023-09-30T14:03:40;19.05;56.06
57709;SHT35;42558;52.388;13.390;2023-09-30T14:06:11;19.04;56.58
57709;SHT35;42558;52.388;13.390;2023-09-30T14:08:42;18.98;56.97
57709;SHT35;42558;52.388;13.390;2023-09-30T14:11:12;19.08;56.84
57709;SHT35;42558;52.388;13.390;2023-09-30T14:13:42;19.21;56.02
57709;SHT35;42558;52.388;13.390;2023-09-30T14:16:12;19.37;54.90
57709;SHT35;42558;52.388;13.390;2023-09-30T14:18:42;19.42;54.98
57709;SHT35;42558;52.388;13.390;2023-09-30T14:21:12;19.55;54.63
57709;SHT35;42558;52.388;13.390;2023-09-30T14:23:42;19.53;55.16
57709;SHT35;42558;52.388;13.390;2023-09-30T14:26:12;19.33;54.43
57709;SHT35;42558;52.388;13.390;2023-09-30T14:28:42;19.08;55.14
57709;SHT35;42558;52.388;13.390;2023-09-30T14:31:12;19.01;55.43
57709;SHT35;42558;52.388;13.390;2023-09-30T14:33:42;19.03;55.53
57709;SHT35;42558;52.388;13.390;2023-09-30T14:36:12;19.00;54.73
57709;SHT35;42558;52.388;13.390;2023-09-30T14:38:42;19.04;55.61
57709;SHT35;42558;52.388;13.390;2023-09-30T14:41:17;19.03;55.44
57709;SHT35;42558;52.388;13.390;2023-09-30T14:43:48;19.00;55.51
57709;SHT35;42558;52.388;13.390;2023-09-30T14:46:18;19.06;55.39
57709;SHT35;42558;52.388;13.390;2023-09-30T14:48:49;19.09;54.96
57709;SHT35;42558;52.388;13.390;2023-09-30T14:51:22;18.97;55.39
57709;SHT35;42558;52.388;13.390;2023-09-30T14:53:52;18.98;55.52
57709;SHT35;42558;52.388;13.390;2023-09-30T14:56:22;18.88;55.72
57709;SHT35;42558;52.388;13.390;2023-09-30T14:58:50;18.85;56.51
57709;SHT35;42558;52.388;13.390;2023-09-30T15:01:18;18.82;56.14
57709;SHT35;42558;52.388;13.390;2023-09-30T15:03:47;18.76;56.45
57709;SHT35;42558;52.388;13.390;2023-09-30T15:06:15;18.73;56.62
57709;SHT35;42558;52.388;13.390;2023-09-30T15:08:44;18.68;56.61
57709;SHT35;42558;52.388;13.390;2023-09-30T15:11:13;18.64;56.89
57709;SHT35;42558;52.388;13.390;2023-09-30T15:13:44;18.65;57.20
57709;SHT35;42558;52.388;13.390;2023-09-30T15:16:16;18.66;57.60
57709;SHT35;42558;52.388;13.390;2023-09-30T15:18:49;18.62;56.98
57709;SHT35;42558;52.388;13.390;2023-09-30T15:21:19;18.55;57.50
57709;SHT35;42558;52.388;13.390;2023-09-30T15:23:49;18.54;57.69
57709;SHT35;42558;52.388;13.390;2023-09-30T15:26:20;18.49;57.69
57709;SHT35;42558;52.388;13.390;2023-09-30T15:28:50;18.45;58.12
57709;SHT35;42558;52.388;13.390;2023-09-30T15:31:20;18.40;58.33
57709;SHT35;42558;52.388;13.390;2023-09-30T15:33:50;18.32;58.83
57709;SHT35;42558;52.388;13.390;2023-09-30T15:36:20;18.27;59.44
57709;SHT35;42558;52.388;13.390;2023-09-30T15:38:50;18.18;59.57
57709;SHT35;42558;52.388;13.390;2023-09-30T15:41:25;18.15;59.51
57709;SHT35;42558;52.388;13.390;2023-09-30T15:43:52;18.12;59.81
57709;SHT35;42558;52.388;13.390;2023-09-30T15:46:22;18.07;60.13
57709;SHT35;42558;52.388;13.390;2023-09-30T15:48:52;18.00;60.39
57709;SHT35;42558;52.388;13.390;2023-09-30T15:51:22;17.96;60.47
57709;SHT35;42558;52.388;13.390;2023-09-30T15:53:52;17.89;60.77
57709;SHT35;42558;52.388;13.390;2023-09-30T15:56:23;17.82;60.70
57709;SHT35;42558;52.388;13.390;2023-09-30T15:58:53;17.78;61.41